createdAt,value
2022-10-17T00:01:27.831Z,16.70
2022-10-17T00:04:00.499Z,16.70
2022-10-17T00:06:33.068Z,16.70
2022-10-17T00:09:05.902Z,16.80
2022-10-17T00:11:38.374Z,16.90
2022-10-17T00:14:10.891Z,17.00
2022-10-17T00:16:43.487Z,17.10
2022-10-17T00:19:15.990Z,17.10
2022-10-17T00:21:50.546Z,17.10
2022-10-17T00:24:23.067Z,17.20
2022-10-17T00:26:55.603Z,17.20
2022-10-17T00:29:28.102Z,17.20
2022-10-17T00:32:00.621Z,17.20
2022-10-17T00:34:33.308Z,17.20
2022-10-17T00:37:05.959Z,17.20
2022-10-17T00:39:39.010Z,17.10
2022-10-17T00:42:13.695Z,17.20
2022-10-17T00:44:48.060Z,17.20
2022-10-17T00:47:22.230Z,17.10
2022-10-17T00:49:55.401Z,17.10
2022-10-17T00:52:30.200Z,17.10
2022-10-17T00:55:10.168Z,17.00
2022-10-17T00:57:45.659Z,16.90
2022-10-17T01:00:20.609Z,16.80
2022-10-17T01:02:53.346Z,16.80
2022-10-17T01:05:27.463Z,16.70
2022-10-17T01:08:01.451Z,16.60
2022-10-17T01:10:52.897Z,16.50
2022-10-17T01:13:42.444Z,16.50
2022-10-17T01:16:23.878Z,16.50
2022-10-17T01:19:19.079Z,16.40
2022-10-17T01:22:00.746Z,16.40
2022-10-17T01:24:58.478Z,16.40
2022-10-17T01:27:43.554Z,16.40
2022-10-17T01:30:32.903Z,16.40
2022-10-17T01:33:09.791Z,16.30
2022-10-17T01:35:54.216Z,16.30
2022-10-17T01:38:37.150Z,16.30
2022-10-17T01:41:18.910Z,16.20
2022-10-17T01:43:59.214Z,16.20
2022-10-17T01:46:39.302Z,16.20
2022-10-17T01:49:15.109Z,16.30
2022-10-17T01:51:53.218Z,16.30
2022-10-17T01:54:32.978Z,16.30
2022-10-17T01:57:09.049Z,16.20
2022-10-17T01:59:46.558Z,16.20
2022-10-17T02:02:21.380Z,16.20
2022-10-17T02:04:57.488Z,16.10
2022-10-17T02:07:30.825Z,16.10
2022-10-17T02:10:14.519Z,16.00
2022-10-17T02:12:55.815Z,16.10
2022-10-17T02:15:46.243Z,16.00
2022-10-17T02:18:35.690Z,16.00
2022-10-17T02:21:18.695Z,16.00
2022-10-17T02:24:05.116Z,15.90
2022-10-17T02:26:50.748Z,15.90
2022-10-17T02:29:28.696Z,15.90
2022-10-17T02:32:12.127Z,15.90
2022-10-17T02:34:49.724Z,15.90
2022-10-17T02:37:28.096Z,15.80
2022-10-17T02:40:02.313Z,15.80
2022-10-17T02:42:36.321Z,15.90
2022-10-17T02:45:10.416Z,15.90
2022-10-17T02:47:58.412Z,15.90
2022-10-17T02:50:43.707Z,15.90
2022-10-17T02:53:25.937Z,16.00
2022-10-17T02:56:11.138Z,16.00
2022-10-17T02:58:46.694Z,16.10
2022-10-17T03:01:20.827Z,16.10
2022-10-17T03:04:06.494Z,16.10
2022-10-17T03:06:40.394Z,16.10
2022-10-17T03:09:13.714Z,16.10
2022-10-17T03:11:47.075Z,16.10
2022-10-17T03:14:19.713Z,16.00
2022-10-17T03:16:52.457Z,16.00
2022-10-17T03:19:25.484Z,16.10
2022-10-17T03:21:58.868Z,16.10
2022-10-17T03:24:31.432Z,16.10
2022-10-17T03:27:04.430Z,16.10
2022-10-17T03:29:37.050Z,16.00
2022-10-17T03:32:11.703Z,15.90
2022-10-17T03:34:45.298Z,15.80
2022-10-17T03:37:18.448Z,15.80
2022-10-17T03:39:51.107Z,15.70
2022-10-17T03:42:24.253Z,15.70
2022-10-17T03:44:56.859Z,15.70
2022-10-17T03:47:30.260Z,15.70
2022-10-17T03:50:04.434Z,15.70
2022-10-17T03:52:40.571Z,15.60
2022-10-17T03:55:14.766Z,15.60
2022-10-17T03:57:47.612Z,15.70
2022-10-17T04:00:22.433Z,15.70
2022-10-17T04:03:01.255Z,15.70
2022-10-17T04:05:33.921Z,15.70
2022-10-17T04:08:06.364Z,15.60
2022-10-17T04:11:01.635Z,15.60
2022-10-17T04:13:35.110Z,15.50
2022-10-17T04:16:11.854Z,15.60
2022-10-17T04:18:56.158Z,15.50
2022-10-17T04:21:31.264Z,15.40
2022-10-17T04:24:11.979Z,15.40
2022-10-17T04:26:51.486Z,15.40
2022-10-17T04:29:26.606Z,15.40
2022-10-17T04:32:06.504Z,15.30
2022-10-17T04:34:50.345Z,15.30
2022-10-17T04:37:25.104Z,15.20
2022-10-17T04:40:00.151Z,15.20
2022-10-17T04:42:36.617Z,15.20
2022-10-17T04:45:10.204Z,15.20
2022-10-17T04:47:43.324Z,15.30
2022-10-17T04:50:16.244Z,15.30
2022-10-17T04:53:08.759Z,15.40
2022-10-17T04:55:41.570Z,15.40
2022-10-17T04:58:14.666Z,15.50
2022-10-17T05:00:47.297Z,15.50
2022-10-17T05:03:27.284Z,15.60
2022-10-17T05:06:06.831Z,15.60
2022-10-17T05:08:40.061Z,15.60
2022-10-17T05:11:32.536Z,15.60
2022-10-17T05:14:05.239Z,15.60
2022-10-17T05:16:38.952Z,15.60
2022-10-17T05:19:12.274Z,15.60
2022-10-17T05:21:50.311Z,15.60
2022-10-17T05:24:22.968Z,15.60
2022-10-17T05:26:55.439Z,15.60
2022-10-17T05:29:28.178Z,15.60
2022-10-17T05:32:10.067Z,15.60
2022-10-17T05:34:43.778Z,15.60
2022-10-17T05:37:16.912Z,15.60
2022-10-17T05:39:54.605Z,15.60
2022-10-17T05:42:27.903Z,15.60
2022-10-17T05:45:02.416Z,15.60
2022-10-17T05:47:37.414Z,15.60
2022-10-17T05:50:10.756Z,15.60
2022-10-17T05:53:03.242Z,15.60
2022-10-17T05:55:37.475Z,15.60
2022-10-17T05:58:17.691Z,15.60
2022-10-17T06:01:07.072Z,15.60
2022-10-17T06:03:43.022Z,15.60
2022-10-17T06:06:16.505Z,15.70
2022-10-17T06:08:50.807Z,15.70
2022-10-17T06:11:29.790Z,15.70
2022-10-17T06:14:02.922Z,15.70
2022-10-17T06:16:36.094Z,15.80
2022-10-17T06:19:08.761Z,15.80
2022-10-17T06:21:41.323Z,15.90
2022-10-17T06:24:20.138Z,15.90
2022-10-17T06:26:53.018Z,16.00
2022-10-17T06:29:27.492Z,16.00
2022-10-17T06:32:00.586Z,16.10
2022-10-17T06:34:33.604Z,16.10
2022-10-17T06:37:06.238Z,16.10
2022-10-17T06:39:45.273Z,16.20
2022-10-17T06:42:21.638Z,16.20
2022-10-17T06:45:10.327Z,16.30
2022-10-17T06:47:50.927Z,16.40
2022-10-17T06:50:39.326Z,16.40
2022-10-17T06:53:18.833Z,16.50
2022-10-17T06:56:01.816Z,16.60
2022-10-17T06:58:51.581Z,16.60
2022-10-17T07:01:32.615Z,16.60
2022-10-17T07:04:06.628Z,16.60
2022-10-17T07:06:40.051Z,16.70
2022-10-17T07:09:23.248Z,16.70
2022-10-17T07:11:56.897Z,16.80
2022-10-17T07:14:32.517Z,16.80
2022-10-17T07:17:05.962Z,16.90
2022-10-17T07:19:38.876Z,16.90
2022-10-17T07:22:14.077Z,17.00
2022-10-17T07:27:39.736Z,17.10
2022-10-17T07:30:12.876Z,17.10
2022-10-17T07:32:54.694Z,17.20
2022-10-17T07:35:27.848Z,17.30
2022-10-17T07:38:00.785Z,17.40
2022-10-17T07:40:33.579Z,17.40
2022-10-17T07:43:07.202Z,17.50
2022-10-17T07:45:42.213Z,17.60
2022-10-17T07:48:15.255Z,17.60
2022-10-17T07:50:49.709Z,17.70
2022-10-17T07:53:22.297Z,17.70
2022-10-17T07:55:55.554Z,17.80
2022-10-17T07:58:31.545Z,17.90
2022-10-17T08:01:08.366Z,18.00
2022-10-17T08:03:46.347Z,18.00
2022-10-17T08:06:19.140Z,18.00
2022-10-17T08:08:52.189Z,18.00
2022-10-17T08:11:25.865Z,18.10
2022-10-17T08:13:58.468Z,18.10
2022-10-17T08:16:31.227Z,18.10
2022-10-17T08:19:04.903Z,18.10
2022-10-17T08:21:38.313Z,18.20
2022-10-17T08:24:10.912Z,18.20
2022-10-17T08:26:45.325Z,18.30
2022-10-17T08:29:20.077Z,18.30
2022-10-17T08:31:56.280Z,18.40
2022-10-17T08:34:33.740Z,18.40
2022-10-17T08:37:06.414Z,18.50
2022-10-17T08:39:39.092Z,18.60
2022-10-17T08:42:30.060Z,18.60
2022-10-17T08:45:20.052Z,18.70
2022-10-17T08:47:59.836Z,18.70
2022-10-17T08:50:41.270Z,18.70
2022-10-17T08:53:29.782Z,18.70
2022-10-17T08:56:19.479Z,18.80
2022-10-17T08:58:53.228Z,18.90
2022-10-17T09:01:47.112Z,19.00
2022-10-17T09:04:20.357Z,19.10
2022-10-17T09:07:06.767Z,19.20
2022-10-17T09:10:01.885Z,19.30
2022-10-17T09:12:52.124Z,19.30
2022-10-17T09:15:48.673Z,19.40
2022-10-17T09:18:40.428Z,19.50
2022-10-17T09:21:43.446Z,19.50
2022-10-17T09:24:26.442Z,19.60
2022-10-17T09:26:59.592Z,19.70
2022-10-17T09:29:37.944Z,19.80
2022-10-17T09:32:18.767Z,19.80
2022-10-17T09:34:54.134Z,19.80
2022-10-17T09:37:33.108Z,19.80
2022-10-17T09:40:09.507Z,19.90
2022-10-17T09:42:42.273Z,20.00
2022-10-17T09:45:20.076Z,20.00
2022-10-17T09:48:06.197Z,20.10
2022-10-17T09:50:40.614Z,20.20
2022-10-17T09:53:15.579Z,20.20
2022-10-17T09:55:55.824Z,20.30
2022-10-17T09:58:46.613Z,20.30
2022-10-17T10:01:25.059Z,20.30
2022-10-17T10:04:14.802Z,20.40
2022-10-17T10:07:05.793Z,20.40
2022-10-17T10:09:40.427Z,20.50
2022-10-17T10:12:32.477Z,20.40
2022-10-17T10:15:32.618Z,20.40
2022-10-17T10:18:25.692Z,20.40
2022-10-17T10:21:17.527Z,20.40
2022-10-17T10:24:11.370Z,20.50
2022-10-17T10:26:51.144Z,20.50
2022-10-17T10:29:38.401Z,20.70
2022-10-17T10:32:20.234Z,20.70
2022-10-17T10:34:59.712Z,20.80
2022-10-17T10:37:43.885Z,20.90
2022-10-17T10:40:21.622Z,20.90
2022-10-17T10:43:03.978Z,20.90
2022-10-17T10:45:54.360Z,21.00
2022-10-17T10:48:34.683Z,21.00
2022-10-17T10:51:18.556Z,21.10
2022-10-17T10:54:08.943Z,21.10
2022-10-17T10:56:49.943Z,21.20
2022-10-17T10:59:43.706Z,21.20
2022-10-17T11:02:33.236Z,21.30
2022-10-17T11:05:06.566Z,21.40
2022-10-17T11:07:58.682Z,21.40
2022-10-17T11:10:39.594Z,21.40
2022-10-17T11:13:18.796Z,21.50
2022-10-17T11:15:59.788Z,21.50
2022-10-17T11:18:51.709Z,21.50
2022-10-17T11:21:53.218Z,21.50
2022-10-17T11:24:33.737Z,21.60
2022-10-17T11:27:10.256Z,21.60
2022-10-17T11:29:46.291Z,21.70
2022-10-17T11:32:25.909Z,21.70
2022-10-17T11:35:07.079Z,21.80
2022-10-17T11:37:49.051Z,21.80
2022-10-17T11:40:30.347Z,21.80
2022-10-17T11:43:13.812Z,21.90
2022-10-17T11:45:52.893Z,21.90
2022-10-17T11:48:40.054Z,22.00
2022-10-17T11:54:18.956Z,22.10
2022-10-17T11:57:14.703Z,22.10
2022-10-17T12:00:07.773Z,22.20
2022-10-17T12:03:15.178Z,22.20
2022-10-17T12:05:57.276Z,22.20
2022-10-17T12:08:38.596Z,22.30
2022-10-17T12:11:35.413Z,22.30
2022-10-17T12:14:27.653Z,22.40
2022-10-17T12:17:02.285Z,22.50
2022-10-17T12:19:38.454Z,22.50
2022-10-17T12:22:22.439Z,22.50
2022-10-17T12:25:02.181Z,22.50
2022-10-17T12:27:39.873Z,22.50
2022-10-17T12:30:15.015Z,22.50
2022-10-17T12:33:07.979Z,22.50
2022-10-17T12:35:42.913Z,22.50
2022-10-17T12:38:20.313Z,22.50
2022-10-17T12:40:56.697Z,22.60
2022-10-17T12:43:30.250Z,22.60
2022-10-17T12:46:05.321Z,22.60
2022-10-17T12:48:40.793Z,22.60
2022-10-17T12:51:35.731Z,22.60
2022-10-17T12:54:14.213Z,22.60
2022-10-17T12:56:50.130Z,22.70
2022-10-17T12:59:28.121Z,22.70
2022-10-17T13:02:03.766Z,22.70
2022-10-17T13:04:37.926Z,22.80
2022-10-17T13:07:22.910Z,22.80
2022-10-17T13:09:57.000Z,22.80
2022-10-17T13:12:30.669Z,22.80
2022-10-17T13:15:08.263Z,22.80
2022-10-17T13:17:43.792Z,22.80
2022-10-17T13:20:31.325Z,22.80
2022-10-17T13:23:05.563Z,22.80
2022-10-17T13:25:39.729Z,22.80
2022-10-17T13:28:14.095Z,22.90
2022-10-17T13:30:49.649Z,22.90
2022-10-17T13:33:42.599Z,22.90
2022-10-17T13:36:19.181Z,22.90
2022-10-17T13:38:53.485Z,22.90
2022-10-17T13:41:35.825Z,22.90
2022-10-17T13:44:18.417Z,22.90
2022-10-17T13:46:52.089Z,22.90
2022-10-17T13:49:42.152Z,22.90
2022-10-17T13:52:19.894Z,22.90
2022-10-17T13:54:54.079Z,22.90
2022-10-17T13:57:31.025Z,22.90
2022-10-17T14:00:13.421Z,22.90
2022-10-17T14:02:47.061Z,22.90
2022-10-17T14:05:23.653Z,22.80
2022-10-17T14:08:20.266Z,22.80
2022-10-17T14:10:53.378Z,22.80
2022-10-17T14:13:30.452Z,22.80
2022-10-17T14:16:04.354Z,22.80
2022-10-17T14:18:38.226Z,22.70
2022-10-17T14:24:21.118Z,22.70
2022-10-17T14:26:59.277Z,22.70
2022-10-17T14:29:53.173Z,22.70
2022-10-17T14:32:26.315Z,22.60
2022-10-17T14:35:18.155Z,22.60
2022-10-17T14:37:58.799Z,22.60
2022-10-17T14:40:34.093Z,22.50
2022-10-17T14:43:06.839Z,22.50
2022-10-17T14:45:40.759Z,22.50
2022-10-17T14:48:17.773Z,22.50
2022-10-17T14:51:10.544Z,22.40
2022-10-17T14:54:04.916Z,22.40
2022-10-17T14:56:42.402Z,22.40
2022-10-17T14:59:30.169Z,22.30
2022-10-17T15:02:12.417Z,22.30
2022-10-17T15:04:45.305Z,22.30
2022-10-17T15:07:19.533Z,22.20
2022-10-17T15:09:54.289Z,22.30
2022-10-17T15:12:27.448Z,22.20
2022-10-17T15:15:00.626Z,22.20
2022-10-17T15:17:35.014Z,22.10
2022-10-17T15:20:18.015Z,22.10
2022-10-17T15:22:54.857Z,22.00
2022-10-17T15:25:29.350Z,22.00
2022-10-17T15:28:02.010Z,22.00
2022-10-17T15:30:36.889Z,22.00
2022-10-17T15:33:09.839Z,21.90
2022-10-17T15:35:44.003Z,21.80
2022-10-17T15:38:19.166Z,21.80
2022-10-17T15:40:52.691Z,21.80
2022-10-17T15:43:26.063Z,21.70
2022-10-17T15:46:01.403Z,21.60
2022-10-17T15:48:33.951Z,21.60
2022-10-17T15:51:07.054Z,21.50
2022-10-17T15:53:40.080Z,21.50
2022-10-17T15:56:25.534Z,21.40
2022-10-17T15:58:58.866Z,21.40
2022-10-17T16:01:33.840Z,21.30
2022-10-17T16:04:06.834Z,21.20
2022-10-17T16:06:39.945Z,21.20
2022-10-17T16:09:13.160Z,21.10
2022-10-17T16:11:48.013Z,21.10
2022-10-17T16:14:48.774Z,21.00
2022-10-17T16:17:22.135Z,20.90
2022-10-17T16:19:55.672Z,20.90
2022-10-17T16:22:33.290Z,20.80
2022-10-17T16:25:10.641Z,20.70
2022-10-17T16:27:43.988Z,20.60
2022-10-17T16:30:19.645Z,20.60
2022-10-17T16:33:17.831Z,20.50
2022-10-17T16:35:50.560Z,20.40
2022-10-17T16:38:23.012Z,20.30
2022-10-17T16:40:55.378Z,20.20
2022-10-17T16:43:28.005Z,20.20
2022-10-17T16:46:04.295Z,20.10
2022-10-17T16:48:37.699Z,20.00
2022-10-17T16:51:12.427Z,19.90
2022-10-17T16:53:46.666Z,19.90
2022-10-17T16:56:21.837Z,19.80
2022-10-17T16:58:54.774Z,19.80
2022-10-17T17:01:29.659Z,19.70
2022-10-17T17:04:05.292Z,19.70
2022-10-17T17:06:38.106Z,19.60
2022-10-17T17:09:10.834Z,19.60
2022-10-17T17:11:43.702Z,19.50
2022-10-17T17:14:16.445Z,19.40
2022-10-17T17:16:49.185Z,19.40
2022-10-17T17:19:21.908Z,19.40
2022-10-17T17:21:54.883Z,19.30
2022-10-17T17:24:28.593Z,19.30
2022-10-17T17:27:01.383Z,19.30
2022-10-17T17:29:34.445Z,19.20
2022-10-17T17:32:08.846Z,19.20
2022-10-17T17:34:41.713Z,19.10
2022-10-17T17:37:14.547Z,19.10
2022-10-17T17:39:47.466Z,19.10
2022-10-17T17:42:20.450Z,19.00
2022-10-17T17:44:53.106Z,19.00
2022-10-17T17:47:29.966Z,18.90
2022-10-17T17:50:30.617Z,18.90
2022-10-17T17:53:06.618Z,18.80
2022-10-17T17:55:39.394Z,18.80
2022-10-17T17:58:13.495Z,18.80
2022-10-17T18:00:48.561Z,18.80
2022-10-17T18:03:21.540Z,18.80
2022-10-17T18:05:54.837Z,18.70
2022-10-17T18:08:27.775Z,18.70
2022-10-17T18:11:00.681Z,18.70
2022-10-17T18:13:34.593Z,18.60
2022-10-17T18:16:13.490Z,18.50
2022-10-17T18:18:46.213Z,18.50
2022-10-17T18:21:19.836Z,18.50
2022-10-17T18:23:53.227Z,18.50
2022-10-17T18:26:26.041Z,18.50
2022-10-17T18:28:59.244Z,18.40
2022-10-17T18:31:36.295Z,18.30
2022-10-17T18:34:09.891Z,18.30
2022-10-17T18:36:42.725Z,18.30
2022-10-17T18:39:15.434Z,18.30
2022-10-17T18:41:48.080Z,18.20
2022-10-17T18:44:20.856Z,18.20
2022-10-17T18:46:53.613Z,18.10
2022-10-17T18:49:26.578Z,18.10
2022-10-17T18:52:00.145Z,18.10
2022-10-17T18:54:35.171Z,18.10
2022-10-17T18:57:08.130Z,18.00
2022-10-17T18:59:41.227Z,18.00
2022-10-17T19:02:14.583Z,18.00
2022-10-17T19:07:25.075Z,18.00
2022-10-17T19:09:57.834Z,18.00
2022-10-17T19:12:30.540Z,17.90
2022-10-17T19:15:03.395Z,17.90
2022-10-17T19:17:36.172Z,17.80
2022-10-17T19:20:10.488Z,17.70
2022-10-17T19:22:44.145Z,17.70
2022-10-17T19:25:17.137Z,17.60
2022-10-17T19:27:50.987Z,17.60
2022-10-17T19:30:23.745Z,17.60
2022-10-17T19:32:56.494Z,17.60
2022-10-17T19:35:29.034Z,17.60
2022-10-17T19:38:01.594Z,17.50
2022-10-17T19:40:36.194Z,17.50
2022-10-17T19:43:08.956Z,17.40
2022-10-17T19:45:41.852Z,17.40
2022-10-17T19:48:21.494Z,17.40
2022-10-17T19:50:54.731Z,17.40
2022-10-17T19:53:29.760Z,17.40
2022-10-17T19:56:02.716Z,17.40
2022-10-17T19:58:44.776Z,17.40
2022-10-17T20:01:21.847Z,17.40
2022-10-17T20:03:55.731Z,17.40
2022-10-17T20:06:29.134Z,17.40
2022-10-17T20:09:02.167Z,17.40
2022-10-17T20:11:35.982Z,17.30
2022-10-17T20:14:08.880Z,17.30
2022-10-17T20:16:41.674Z,17.30
2022-10-17T20:19:15.683Z,17.20
2022-10-17T20:21:48.390Z,17.20
2022-10-17T20:24:21.209Z,17.10
2022-10-17T20:26:53.721Z,17.10
2022-10-17T20:29:28.727Z,17.10
2022-10-17T20:32:01.481Z,17.20
2022-10-17T20:34:35.895Z,17.20
2022-10-17T20:37:08.652Z,17.20
2022-10-17T20:39:42.991Z,17.20
2022-10-17T20:42:16.211Z,17.10
2022-10-17T20:44:48.978Z,17.10
2022-10-17T20:47:40.036Z,17.10
2022-10-17T20:50:15.030Z,17.10
2022-10-17T20:52:47.677Z,17.10
2022-10-17T20:55:20.301Z,17.10
2022-10-17T20:57:54.474Z,17.10
2022-10-17T21:00:27.248Z,17.10
2022-10-17T21:02:59.873Z,17.20
2022-10-17T21:05:32.556Z,17.10
2022-10-17T21:08:05.664Z,17.10
2022-10-17T21:10:38.328Z,17.10
2022-10-17T21:13:10.926Z,17.10
2022-10-17T21:15:43.636Z,17.10
2022-10-17T21:18:16.199Z,17.10
2022-10-17T21:20:48.765Z,17.10
2022-10-17T21:23:21.325Z,17.10
2022-10-17T21:25:53.902Z,17.10
2022-10-17T21:28:26.530Z,17.10
2022-10-17T21:31:19.358Z,17.10
2022-10-17T21:33:55.119Z,17.10
2022-10-17T21:36:28.673Z,17.00
2022-10-17T21:39:01.273Z,17.00
2022-10-17T21:41:34.169Z,17.00
2022-10-17T21:44:12.639Z,17.00
2022-10-17T21:46:46.083Z,17.00
2022-10-17T21:49:20.949Z,17.00
2022-10-17T21:51:53.844Z,17.00
2022-10-17T21:54:26.299Z,17.00
2022-10-17T21:56:58.883Z,16.90
2022-10-17T21:59:35.019Z,16.90
2022-10-17T22:02:07.548Z,16.90
2022-10-17T22:04:40.094Z,17.00
2022-10-17T22:07:12.707Z,17.10
2022-10-17T22:09:45.290Z,17.10
2022-10-17T22:12:18.016Z,17.10
2022-10-17T22:14:50.629Z,17.20
2022-10-17T22:17:23.429Z,17.30
2022-10-17T22:19:56.138Z,17.40
2022-10-17T22:22:28.844Z,17.40
2022-10-17T22:25:01.473Z,17.40
2022-10-17T22:27:34.189Z,17.50
2022-10-17T22:30:07.642Z,17.50
2022-10-17T22:32:40.270Z,17.50
2022-10-17T22:35:13.192Z,17.50
2022-10-17T22:37:45.747Z,17.60
2022-10-17T22:40:18.263Z,17.60
2022-10-17T22:42:50.782Z,17.60
2022-10-17T22:45:23.531Z,17.50
2022-10-17T22:47:56.686Z,17.50
2022-10-17T22:50:29.514Z,17.50
2022-10-17T22:53:02.277Z,17.50
2022-10-17T22:55:34.827Z,17.50
2022-10-17T22:58:07.349Z,17.40
2022-10-17T23:00:39.809Z,17.30
2022-10-17T23:03:12.379Z,17.30
2022-10-17T23:05:45.297Z,17.20
2022-10-17T23:08:18.275Z,17.30
2022-10-17T23:10:51.118Z,17.30
2022-10-17T23:13:23.902Z,17.30
2022-10-17T23:15:58.040Z,17.30
2022-10-17T23:21:08.571Z,17.30
2022-10-17T23:23:41.186Z,17.30
2022-10-17T23:26:14.905Z,17.30
2022-10-17T23:28:47.500Z,17.30
2022-10-17T23:31:22.044Z,17.30
2022-10-17T23:33:54.857Z,17.30
2022-10-17T23:36:27.506Z,17.30
2022-10-17T23:39:00.185Z,17.30
2022-10-17T23:41:32.913Z,17.30
2022-10-17T23:44:05.707Z,17.30
2022-10-17T23:46:38.603Z,17.20
2022-10-17T23:49:11.690Z,17.20
2022-10-17T23:51:44.145Z,17.20
2022-10-17T23:54:16.627Z,17.10
2022-10-17T23:56:49.260Z,17.10
2022-10-17T23:59:22.050Z,17.10
